sensor_id;sensor_type;location;lat;lon;timestamp;temperature;humidity
41722;DHT22;27407;24.142;-110.310;2023-12-04T14:01:56;20.50;99.90
41722;DHT22;27407;24.142;-110.310;2023-12-04T14:04:26;20.60;99.90
41722;DHT22;27407;24.142;-110.310;2023-12-04T14:06:53;20.60;99.90
41722;DHT22;27407;24.142;-110.310;2023-12-04T14:09:20;20.70;99.90
41722;DHT22;27407;24.142;-110.310;2023-12-04T14:11:46;20.80;99.90
41722;DHT22;27407;24.142;-110.310;2023-12-04T14:14:14;20.70;99.90
41722;DHT22;27407;24.142;-110.310;2023-12-04T14:16:41;20.80;99.90
41722;DHT22;27407;24.142;-110.310;2023-12-04T14:19:08;20.90;99.90
41722;DHT22;27407;24.142;-110.310;2023-12-04T14:21:35;21.00;99.90
41722;DHT22;27407;24.142;-110.310;2023-12-04T14:24:01;21.10;99.90
41722;DHT22;27407;24.142;-110.310;2023-12-04T14:26:28;21.20;99.90
41722;DHT22;27407;24.142;-110.310;2023-12-04T14:28:54;21.10;99.90
41722;DHT22;27407;24.142;-110.310;2023-12-04T14:31:23;21.10;99.90
41722;DHT22;27407;24.142;-110.310;2023-12-04T14:33:50;21.20;99.90
41722;DHT22;27407;24.142;-110.310;2023-12-04T14:36:16;21.20;99.90
41722;DHT22;27407;24.142;-110.310;2023-12-04T14:38:43;21.20;99.90
41722;DHT22;27407;24.142;-110.310;2023-12-04T14:41:13;21.30;99.90
41722;DHT22;27407;24.142;-110.310;2023-12-04T14:43:39;21.50;99.90
41722;DHT22;27407;24.142;-110.310;2023-12-04T14:46:08;21.40;99.90
41722;DHT22;27407;24.142;-110.310;2023-12-04T14:48:37;21.60;99.90
41722;DHT22;27407;24.142;-110.310;2023-12-04T14:51:06;21.50;99.90
41722;DHT22;27407;24.142;-110.310;2023-12-04T14:53:33;21.80;99.90
41722;DHT22;27407;24.142;-110.310;2023-12-04T14:56:40;21.90;99.90
41722;DHT22;27407;24.142;-110.310;2023-12-04T14:59:25;22.00;99.90
41722;DHT22;27407;24.142;-110.310;2023-12-04T15:02:10;21.90;99.90
41722;DHT22;27407;24.142;-110.310;2023-12-04T15:04:55;22.00;99.90
41722;DHT22;27407;24.142;-110.310;2023-12-04T15:07:31;22.10;99.90
41722;DHT22;27407;24.142;-110.310;2023-12-04T15:10:15;22.10;99.90
41722;DHT22;27407;24.142;-110.310;2023-12-04T15:13:00;22.20;99.90
41722;DHT22;27407;24.142;-110.310;2023-12-04T15:15:27;22.50;99.90
41722;DHT22;27407;24.142;-110.310;2023-12-04T15:17:53;22.40;99.90
41722;DHT22;27407;24.142;-110.310;2023-12-04T15:20:43;22.50;99.90
41722;DHT22;27407;24.142;-110.310;2023-12-04T15:23:11;22.50;99.90
41722;DHT22;27407;24.142;-110.310;2023-12-04T15:25:38;22.70;99.90
41722;DHT22;27407;24.142;-110.310;2023-12-04T15:28:06;22.90;99.90
41722;DHT22;27407;24.142;-110.310;2023-12-04T15:30:34;22.90;99.90
41722;DHT22;27407;24.142;-110.310;2023-12-04T15:33:01;23.00;99.90
41722;DHT22;27407;24.142;-110.310;2023-12-04T15:35:28;23.20;99.90
41722;DHT22;27407;24.142;-110.310;2023-12-04T15:37:54;23.20;99.90
41722;DHT22;27407;24.142;-110.310;2023-12-04T15:40:21;23.20;99.90
41722;DHT22;27407;24.142;-110.310;2023-12-04T15:42:48;23.30;99.90
41722;DHT22;27407;24.142;-110.310;2023-12-04T15:45:14;23.30;99.90
41722;DHT22;27407;24.142;-110.310;2023-12-04T15:47:41;23.40;99.90
41722;DHT22;27407;24.142;-110.310;2023-12-04T15:50:08;23.30;99.90
41722;DHT22;27407;24.142;-110.310;2023-12-04T15:52:35;23.40;99.90
41722;DHT22;27407;24.142;-110.310;2023-12-04T15:55:06;23.40;99.90
41722;DHT22;27407;24.142;-110.310;2023-12-04T15:57:34;23.50;99.90
41722;DHT22;27407;24.142;-110.310;2023-12-04T16:00:01;23.50;99.90
41722;DHT22;27407;24.142;-110.310;2023-12-04T16:02:27;23.60;99.90
41722;DHT22;27407;24.142;-110.310;2023-12-04T16:04:54;23.80;99.90
41722;DHT22;27407;24.142;-110.310;2023-12-04T16:07:31;24.00;99.90
41722;DHT22;27407;24.142;-110.310;2023-12-04T16:09:58;24.20;99.90
41722;DHT22;27407;24.142;-110.310;2023-12-04T16:12:25;24.10;99.90
41722;DHT22;27407;24.142;-110.310;2023-12-04T16:14:51;24.10;99.90
41722;DHT22;27407;24.142;-110.310;2023-12-04T16:17:38;24.10;99.90
41722;DHT22;27407;24.142;-110.310;2023-12-04T16:20:06;24.00;99.90
41722;DHT22;27407;24.142;-110.310;2023-12-04T16:22:39;24.00;99.90
41722;DHT22;27407;24.142;-110.310;2023-12-04T16:25:07;24.00;99.90
41722;DHT22;27407;24.142;-110.310;2023-12-04T16:27:35;24.00;99.90
41722;DHT22;27407;24.142;-110.310;2023-12-04T16:30:05;23.80;99.90
41722;DHT22;27407;24.142;-110.310;2023-12-04T16:32:32;24.00;99.90
41722;DHT22;27407;24.142;-110.310;2023-12-04T16:34:59;24.00;99.90
41722;DHT22;27407;24.142;-110.310;2023-12-04T16:37:29;24.30;99.90
41722;DHT22;27407;24.142;-110.310;2023-12-04T16:39:56;24.60;99.90
41722;DHT22;27407;24.142;-110.310;2023-12-04T16:42:22;24.80;99.90
41722;DHT22;27407;24.142;-110.310;2023-12-04T16:44:49;25.00;99.90
41722;DHT22;27407;24.142;-110.310;2023-12-04T16:47:15;25.10;99.90
41722;DHT22;27407;24.142;-110.310;2023-12-04T16:49:43;25.40;99.90
41722;DHT22;27407;24.142;-110.310;2023-12-04T16:52:09;25.60;99.90
41722;DHT22;27407;24.142;-110.310;2023-12-04T16:54:44;25.70;99.90
41722;DHT22;27407;24.142;-110.310;2023-12-04T16:57:13;25.50;99.90
41722;DHT22;27407;24.142;-110.310;2023-12-04T16:59:40;25.50;99.90
41722;DHT22;27407;24.142;-110.310;2023-12-04T17:02:07;25.50;99.90
41722;DHT22;27407;24.142;-110.310;2023-12-04T17:04:33;25.60;99.90
41722;DHT22;27407;24.142;-110.310;2023-12-04T17:07:00;25.90;99.90
41722;DHT22;27407;24.142;-110.310;2023-12-04T17:09:27;26.20;99.90
41722;DHT22;27407;24.142;-110.310;2023-12-04T17:11:53;26.30;99.90
41722;DHT22;27407;24.142;-110.310;2023-12-04T17:14:20;26.40;99.90
41722;DHT22;27407;24.142;-110.310;2023-12-04T17:16:47;26.40;99.90
41722;DHT22;27407;24.142;-110.310;2023-12-04T17:19:13;26.40;99.90
41722;DHT22;27407;24.142;-110.310;2023-12-04T17:21:49;26.50;99.90
41722;DHT22;27407;24.142;-110.310;2023-12-04T17:24:17;26.40;99.90
41722;DHT22;27407;24.142;-110.310;2023-12-04T17:26:47;26.50;99.90
41722;DHT22;27407;24.142;-110.310;2023-12-04T17:29:14;26.70;99.90
41722;DHT22;27407;24.142;-110.310;2023-12-04T17:31:41;26.80;99.90
41722;DHT22;27407;24.142;-110.310;2023-12-04T17:34:08;26.60;99.90
41722;DHT22;27407;24.142;-110.310;2023-12-04T17:36:36;26.70;99.90
41722;DHT22;27407;24.142;-110.310;2023-12-04T17:39:21;26.50;99.90
41722;DHT22;27407;24.142;-110.310;2023-12-04T17:41:51;26.60;99.90
41722;DHT22;27407;24.142;-110.310;2023-12-04T17:44:18;26.80;99.90
41722;DHT22;27407;24.142;-110.310;2023-12-04T17:46:45;26.80;99.90
41722;DHT22;27407;24.142;-110.310;2023-12-04T17:49:11;27.00;99.90
41722;DHT22;27407;24.142;-110.310;2023-12-04T17:51:40;26.80;99.90
41722;DHT22;27407;24.142;-110.310;2023-12-04T17:54:27;26.90;99.90
41722;DHT22;27407;24.142;-110.310;2023-12-04T17:56:53;26.90;99.90
41722;DHT22;27407;24.142;-110.310;2023-12-04T17:59:21;26.80;99.90
41722;DHT22;27407;24.142;-110.310;2023-12-04T18:01:48;26.70;99.90
41722;DHT22;27407;24.142;-110.310;2023-12-04T18:04:15;26.90;99.90
41722;DHT22;27407;24.142;-110.310;2023-12-04T18:06:41;27.00;99.90
41722;DHT22;27407;24.142;-110.310;2023-12-04T18:09:08;26.80;99.90
41722;DHT22;27407;24.142;-110.310;2023-12-04T18:11:35;26.70;99.90
41722;DHT22;27407;24.142;-110.310;2023-12-04T18:14:01;26.90;99.90
41722;DHT22;27407;24.142;-110.310;2023-12-04T18:16:28;27.20;99.90
41722;DHT22;27407;24.142;-110.310;2023-12-04T18:18:55;26.80;99.90
41722;DHT22;27407;24.142;-110.310;2023-12-04T18:21:21;26.90;99.90
41722;DHT22;27407;24.142;-110.310;2023-12-04T18:23:48;26.70;99.90
41722;DHT22;27407;24.142;-110.310;2023-12-04T18:26:15;27.00;99.90
41722;DHT22;27407;24.142;-110.310;2023-12-04T18:28:42;27.50;99.90
41722;DHT22;27407;24.142;-110.310;2023-12-04T18:31:10;27.70;99.90
41722;DHT22;27407;24.142;-110.310;2023-12-04T18:33:38;27.60;99.90
41722;DHT22;27407;24.142;-110.310;2023-12-04T18:36:07;27.50;99.90
41722;DHT22;27407;24.142;-110.310;2023-12-04T18:38:52;27.40;99.90
41722;DHT22;27407;24.142;-110.310;2023-12-04T18:41:21;27.90;99.90
41722;DHT22;27407;24.142;-110.310;2023-12-04T18:43:48;28.20;99.90
41722;DHT22;27407;24.142;-110.310;2023-12-04T18:46:15;28.30;99.90
41722;DHT22;27407;24.142;-110.310;2023-12-04T18:48:46;28.50;99.90
41722;DHT22;27407;24.142;-110.310;2023-12-04T18:51:14;28.80;99.90
41722;DHT22;27407;24.142;-110.310;2023-12-04T18:53:41;29.00;99.90
41722;DHT22;27407;24.142;-110.310;2023-12-04T18:56:08;28.50;99.90
41722;DHT22;27407;24.142;-110.310;2023-12-04T18:58:35;28.50;99.90
41722;DHT22;27407;24.142;-110.310;2023-12-04T19:01:02;29.00;99.90
41722;DHT22;27407;24.142;-110.310;2023-12-04T19:04:17;29.30;99.90
41722;DHT22;27407;24.142;-110.310;2023-12-04T19:06:43;29.00;99.90
41722;DHT22;27407;24.142;-110.310;2023-12-04T19:09:10;29.20;99.90
41722;DHT22;27407;24.142;-110.310;2023-12-04T19:11:36;29.60;99.90
41722;DHT22;27407;24.142;-110.310;2023-12-04T19:14:03;29.50;99.90
41722;DHT22;27407;24.142;-110.310;2023-12-04T19:16:30;29.70;99.90
41722;DHT22;27407;24.142;-110.310;2023-12-04T19:19:17;29.80;99.90
41722;DHT22;27407;24.142;-110.310;2023-12-04T19:21:44;30.00;99.90
41722;DHT22;27407;24.142;-110.310;2023-12-04T19:24:11;30.30;99.90
41722;DHT22;27407;24.142;-110.310;2023-12-04T19:26:38;29.90;99.90
41722;DHT22;27407;24.142;-110.310;2023-12-04T19:29:05;30.20;99.90
41722;DHT22;27407;24.142;-110.310;2023-12-04T19:31:32;29.80;99.90
41722;DHT22;27407;24.142;-110.310;2023-12-04T19:33:58;30.10;99.90
41722;DHT22;27407;24.142;-110.310;2023-12-04T19:36:25;30.50;99.90
41722;DHT22;27407;24.142;-110.310;2023-12-04T19:38:52;30.50;99.90
41722;DHT22;27407;24.142;-110.310;2023-12-04T19:41:19;30.70;99.90
41722;DHT22;27407;24.142;-110.310;2023-12-04T19:43:45;30.20;99.90
41722;DHT22;27407;24.142;-110.310;2023-12-04T19:46:12;29.70;99.90
41722;DHT22;27407;24.142;-110.310;2023-12-04T19:48:39;30.20;99.90
41722;DHT22;27407;24.142;-110.310;2023-12-04T19:51:05;30.90;99.90
41722;DHT22;27407;24.142;-110.310;2023-12-04T19:53:32;31.20;99.90
41722;DHT22;27407;24.142;-110.310;2023-12-04T19:55:59;31.10;99.90
41722;DHT22;27407;24.142;-110.310;2023-12-04T19:58:25;31.20;99.90
41722;DHT22;27407;24.142;-110.310;2023-12-04T20:00:52;31.40;99.90
41722;DHT22;27407;24.142;-110.310;2023-12-04T20:03:19;31.50;99.90
41722;DHT22;27407;24.142;-110.310;2023-12-04T20:05:45;31.60;99.90
41722;DHT22;27407;24.142;-110.310;2023-12-04T20:08:12;31.50;99.90
41722;DHT22;27407;24.142;-110.310;2023-12-04T20:10:40;31.90;99.90
41722;DHT22;27407;24.142;-110.310;2023-12-04T20:13:07;32.00;99.90
41722;DHT22;27407;24.142;-110.310;2023-12-04T20:15:34;32.00;99.90
41722;DHT22;27407;24.142;-110.310;2023-12-04T20:18:01;31.40;99.90
41722;DHT22;27407;24.142;-110.310;2023-12-04T20:20:28;31.20;99.90
41722;DHT22;27407;24.142;-110.310;2023-12-04T20:22:54;31.60;99.90
41722;DHT22;27407;24.142;-110.310;2023-12-04T20:25:21;31.80;99.90
41722;DHT22;27407;24.142;-110.310;2023-12-04T20:27:48;31.80;99.90
41722;DHT22;27407;24.142;-110.310;2023-12-04T20:30:15;32.00;99.90
41722;DHT22;27407;24.142;-110.310;2023-12-04T20:32:41;32.20;99.90
41722;DHT22;27407;24.142;-110.310;2023-12-04T20:35:08;32.60;99.90
41722;DHT22;27407;24.142;-110.310;2023-12-04T20:37:35;32.20;99.90
41722;DHT22;27407;24.142;-110.310;2023-12-04T20:40:03;32.70;99.90
41722;DHT22;27407;24.142;-110.310;2023-12-04T20:42:31;32.30;99.90
41722;DHT22;27407;24.142;-110.310;2023-12-04T20:44:57;32.10;99.90
41722;DHT22;27407;24.142;-110.310;2023-12-04T20:47:24;32.20;99.90
41722;DHT22;27407;24.142;-110.310;2023-12-04T20:49:50;32.10;99.90
41722;DHT22;27407;24.142;-110.310;2023-12-04T20:52:17;32.00;99.90
41722;DHT22;27407;24.142;-110.310;2023-12-04T20:54:44;31.80;99.90
41722;DHT22;27407;24.142;-110.310;2023-12-04T20:57:10;32.00;99.90
41722;DHT22;27407;24.142;-110.310;2023-12-04T20:59:37;32.00;99.90
41722;DHT22;27407;24.142;-110.310;2023-12-04T21:02:03;31.90;99.90
41722;DHT22;27407;24.142;-110.310;2023-12-04T21:04:31;31.50;99.90
41722;DHT22;27407;24.142;-110.310;2023-12-04T21:06:57;31.80;99.90
41722;DHT22;27407;24.142;-110.310;2023-12-04T21:09:25;31.70;99.90
41722;DHT22;27407;24.142;-110.310;2023-12-04T21:11:51;31.50;99.90
41722;DHT22;27407;24.142;-110.310;2023-12-04T21:14:18;32.00;99.90
41722;DHT22;27407;24.142;-110.310;2023-12-04T21:16:45;31.90;99.90
41722;DHT22;27407;24.142;-110.310;2023-12-04T21:19:13;31.40;99.90
41722;DHT22;27407;24.142;-110.310;2023-12-04T21:21:40;31.20;99.90
41722;DHT22;27407;24.142;-110.310;2023-12-04T21:24:09;31.60;99.90
41722;DHT22;27407;24.142;-110.310;2023-12-04T21:26:35;31.50;99.90
41722;DHT22;27407;24.142;-110.310;2023-12-04T21:29:02;31.50;99.90
41722;DHT22;27407;24.142;-110.310;2023-12-04T21:31:29;31.20;99.90
41722;DHT22;27407;24.142;-110.310;2023-12-04T21:33:56;31.20;99.90
41722;DHT22;27407;24.142;-110.310;2023-12-04T21:36:22;31.20;99.90
41722;DHT22;27407;24.142;-110.310;2023-12-04T21:38:49;31.20;99.90
41722;DHT22;27407;24.142;-110.310;2023-12-04T21:41:16;31.20;99.90
41722;DHT22;27407;24.142;-110.310;2023-12-04T21:43:42;31.10;99.90
41722;DHT22;27407;24.142;-110.310;2023-12-04T21:46:09;31.10;99.90
41722;DHT22;27407;24.142;-110.310;2023-12-04T21:48:36;31.20;99.90
41722;DHT22;27407;24.142;-110.310;2023-12-04T21:51:03;30.50;99.90
41722;DHT22;27407;24.142;-110.310;2023-12-04T21:53:30;30.70;99.90
41722;DHT22;27407;24.142;-110.310;2023-12-04T21:55:57;30.60;99.90
41722;DHT22;27407;24.142;-110.310;2023-12-04T21:58:25;30.90;99.90
41722;DHT22;27407;24.142;-110.310;2023-12-04T22:00:57;31.00;99.90
41722;DHT22;27407;24.142;-110.310;2023-12-04T22:03:24;30.80;99.90
41722;DHT22;27407;24.142;-110.310;2023-12-04T22:05:50;30.80;99.90
41722;DHT22;27407;24.142;-110.310;2023-12-04T22:08:17;31.00;99.90
41722;DHT22;27407;24.142;-110.310;2023-12-04T22:10:44;30.80;99.90
41722;DHT22;27407;24.142;-110.310;2023-12-04T22:13:10;30.50;99.90
41722;DHT22;27407;24.142;-110.310;2023-12-04T22:15:37;30.30;99.90
41722;DHT22;27407;24.142;-110.310;2023-12-04T22:18:04;30.30;99.90
41722;DHT22;27407;24.142;-110.310;2023-12-04T22:20:30;30.40;99.90
41722;DHT22;27407;24.142;-110.310;2023-12-04T22:22:57;30.00;99.90
41722;DHT22;27407;24.142;-110.310;2023-12-04T22:25:24;30.00;99.90
41722;DHT22;27407;24.142;-110.310;2023-12-04T22:27:51;29.70;99.90
41722;DHT22;27407;24.142;-110.310;2023-12-04T22:30:18;29.30;99.90
41722;DHT22;27407;24.142;-110.310;2023-12-04T22:32:45;28.90;99.90
41722;DHT22;27407;24.142;-110.310;2023-12-04T22:35:12;28.70;99.90
41722;DHT22;27407;24.142;-110.310;2023-12-04T22:37:38;28.30;99.90
41722;DHT22;27407;24.142;-110.310;2023-12-04T22:40:05;28.00;99.90
41722;DHT22;27407;24.142;-110.310;2023-12-04T22:42:32;27.80;99.90
41722;DHT22;27407;24.142;-110.310;2023-12-04T22:44:59;27.50;99.90
41722;DHT22;27407;24.142;-110.310;2023-12-04T22:47:26;27.20;99.90
41722;DHT22;27407;24.142;-110.310;2023-12-04T22:49:53;27.00;99.90
41722;DHT22;27407;24.142;-110.310;2023-12-04T22:52:20;26.90;99.90
41722;DHT22;27407;24.142;-110.310;2023-12-04T22:54:46;26.80;99.90
41722;DHT22;27407;24.142;-110.310;2023-12-04T22:57:13;26.50;99.90
41722;DHT22;27407;24.142;-110.310;2023-12-04T22:59:40;26.30;99.90
41722;DHT22;27407;24.142;-110.310;2023-12-04T23:02:07;26.50;99.90
41722;DHT22;27407;24.142;-110.310;2023-12-04T23:04:33;26.20;99.90
41722;DHT22;27407;24.142;-110.310;2023-12-04T23:07:00;26.30;99.90
41722;DHT22;27407;24.142;-110.310;2023-12-04T23:09:26;26.30;99.90
41722;DHT22;27407;24.142;-110.310;2023-12-04T23:11:53;26.30;99.90
41722;DHT22;27407;24.142;-110.310;2023-12-04T23:14:21;26.10;99.90
41722;DHT22;27407;24.142;-110.310;2023-12-04T23:16:48;25.90;99.90
41722;DHT22;27407;24.142;-110.310;2023-12-04T23:19:15;25.90;99.90
41722;DHT22;27407;24.142;-110.310;2023-12-04T23:21:41;25.90;99.90
41722;DHT22;27407;24.142;-110.310;2023-12-04T23:24:08;25.90;99.90
41722;DHT22;27407;24.142;-110.310;2023-12-04T23:26:35;25.80;99.90
41722;DHT22;27407;24.142;-110.310;2023-12-04T23:29:02;25.70;99.90
41722;DHT22;27407;24.142;-110.310;2023-12-04T23:31:31;25.60;99.90
41722;DHT22;27407;24.142;-110.310;2023-12-04T23:33:59;25.70;99.90
41722;DHT22;27407;24.142;-110.310;2023-12-04T23:36:26;25.40;99.90
41722;DHT22;27407;24.142;-110.310;2023-12-04T23:38:53;25.50;99.90
41722;DHT22;27407;24.142;-110.310;2023-12-04T23:41:19;25.50;99.90
41722;DHT22;27407;24.142;-110.310;2023-12-04T23:43:46;25.40;99.90
41722;DHT22;27407;24.142;-110.310;2023-12-04T23:46:13;25.40;99.90
41722;DHT22;27407;24.142;-110.310;2023-12-04T23:48:39;25.40;99.90
41722;DHT22;27407;24.142;-110.310;2023-12-04T23:51:07;25.20;99.90
41722;DHT22;27407;24.142;-110.310;2023-12-04T23:53:33;25.20;99.90
41722;DHT22;27407;24.142;-110.310;2023-12-04T23:56:00;25.10;99.90
41722;DHT22;27407;24.142;-110.310;2023-12-04T23:58:27;25.00;99.90
